sensor_id;sensor_type;location;lat;lon;timestamp;pressure;altitude;pressure_sealevel;temperature;humidity
68137;BME280;54939;50.826;9.030;2022-10-16T00:00:28;98295.50;;;15.50;65.49
68137;BME280;54939;50.826;9.030;2022-10-16T00:00:58;98299.22;;;15.49;65.32
68137;BME280;54939;50.826;9.030;2022-10-16T00:01:28;98294.88;;;15.48;65.57
68137;BME280;54939;50.826;9.030;2022-10-16T00:01:59;98290.53;;;15.47;65.57
68137;BME280;54939;50.826;9.030;2022-10-16T00:02:29;98293.03;;;15.49;65.44
68137;BME280;54939;50.826;9.030;2022-10-16T00:02:59;98296.72;;;15.48;65.39
68137;BME280;54939;50.826;9.030;2022-10-16T00:03:29;98295.06;;;15.47;65.34
68137;BME280;54939;50.826;9.030;2022-10-16T00:04:00;98292.38;;;15.47;65.41
68137;BME280;54939;50.826;9.030;2022-10-16T00:04:30;98287.19;;;15.45;65.27
68137;BME280;54939;50.826;9.030;2022-10-16T00:05:01;98297.56;;;15.48;65.48
68137;BME280;54939;50.826;9.030;2022-10-16T00:05:31;98295.25;;;15.45;65.21
68137;BME280;54939;50.826;9.030;2022-10-16T00:06:01;98295.06;;;15.47;65.37
68137;BME280;54939;50.826;9.030;2022-10-16T00:06:31;98292.38;;;15.47;65.44
68137;BME280;54939;50.826;9.030;2022-10-16T00:07:02;98293.63;;;15.51;65.27
68137;BME280;54939;50.826;9.030;2022-10-16T00:07:32;98294.88;;;15.48;65.25
68137;BME280;54939;50.826;9.030;2022-10-16T00:08:02;98291.97;;;15.50;65.49
68137;BME280;54939;50.826;9.030;2022-10-16T00:08:32;98296.31;;;15.51;65.16
68137;BME280;54939;50.826;9.030;2022-10-16T00:09:03;98297.16;;;15.51;65.12
68137;BME280;54939;50.826;9.030;2022-10-16T00:09:33;98298.50;;;15.55;65.16
68137;BME280;54939;50.826;9.030;2022-10-16T00:10:03;98303.38;;;15.52;65.04
68137;BME280;54939;50.826;9.030;2022-10-16T00:10:34;98304.59;;;15.49;65.09
68137;BME280;54939;50.826;9.030;2022-10-16T00:11:35;98297.34;;;15.50;65.30
68137;BME280;54939;50.826;9.030;2022-10-16T00:12:09;98302.72;;;15.50;65.03
68137;BME280;54939;50.826;9.030;2022-10-16T00:12:39;98293.03;;;15.49;65.11
68137;BME280;54939;50.826;9.030;2022-10-16T00:13:09;98299.50;;;15.54;64.95
68137;BME280;54939;50.826;9.030;2022-10-16T00:13:40;98295.31;;;15.52;65.04
68137;BME280;54939;50.826;9.030;2022-10-16T00:14:11;98290.75;;;15.52;65.08
68137;BME280;54939;50.826;9.030;2022-10-16T00:14:41;98291.78;;;15.51;65.00
68137;BME280;54939;50.826;9.030;2022-10-16T00:15:14;98287.44;;;15.50;65.01
68137;BME280;54939;50.826;9.030;2022-10-16T00:15:44;98285.75;;;15.49;64.96
68137;BME280;54939;50.826;9.030;2022-10-16T00:16:15;98289.09;;;15.51;64.98
68137;BME280;54939;50.826;9.030;2022-10-16T00:16:45;98281.84;;;15.52;65.00
68137;BME280;54939;50.826;9.030;2022-10-16T00:17:15;98281.84;;;15.52;64.87
68137;BME280;54939;50.826;9.030;2022-10-16T00:17:45;98282.03;;;15.50;64.61
68137;BME280;54939;50.826;9.030;2022-10-16T00:18:15;98284.38;;;15.53;64.40
68137;BME280;54939;50.826;9.030;2022-10-16T00:18:46;98288.75;;;15.54;64.62
68137;BME280;54939;50.826;9.030;2022-10-16T00:19:16;98280.88;;;15.53;64.76
68137;BME280;54939;50.826;9.030;2022-10-16T00:19:46;98292.47;;;15.53;64.74
68137;BME280;54939;50.826;9.030;2022-10-16T00:20:16;98287.25;;;15.52;64.86
68137;BME280;54939;50.826;9.030;2022-10-16T00:20:46;98289.94;;;15.52;64.80
68137;BME280;54939;50.826;9.030;2022-10-16T00:21:18;98288.44;;;15.49;64.68
68137;BME280;54939;50.826;9.030;2022-10-16T00:21:49;98293.03;;;15.49;64.88
68137;BME280;54939;50.826;9.030;2022-10-16T00:22:19;98293.81;;;15.49;64.79
68137;BME280;54939;50.826;9.030;2022-10-16T00:22:49;98292.19;;;15.48;64.93
68137;BME280;54939;50.826;9.030;2022-10-16T00:23:19;98301.09;;;15.49;64.91
68137;BME280;54939;50.826;9.030;2022-10-16T00:23:51;98298.00;;;15.52;64.81
68137;BME280;54939;50.826;9.030;2022-10-16T00:24:21;98300.03;;;15.50;64.82
68137;BME280;54939;50.826;9.030;2022-10-16T00:24:51;98298.00;;;15.52;64.58
68137;BME280;54939;50.826;9.030;2022-10-16T00:25:21;98300.69;;;15.52;64.64
68137;BME280;54939;50.826;9.030;2022-10-16T00:25:55;98302.72;;;15.50;64.68
68137;BME280;54939;50.826;9.030;2022-10-16T00:26:27;98302.38;;;15.53;64.77
68137;BME280;54939;50.826;9.030;2022-10-16T00:26:58;98306.91;;;15.52;64.79
68137;BME280;54939;50.826;9.030;2022-10-16T00:27:28;98305.06;;;15.53;64.59
68137;BME280;54939;50.826;9.030;2022-10-16T00:27:59;98301.72;;;15.51;64.48
68137;BME280;54939;50.826;9.030;2022-10-16T00:28:30;98303.56;;;15.50;64.65
68137;BME280;54939;50.826;9.030;2022-10-16T00:29:00;98302.53;;;15.51;64.75
68137;BME280;54939;50.826;9.030;2022-10-16T00:29:30;98309.16;;;15.49;64.55
68137;BME280;54939;50.826;9.030;2022-10-16T00:30:00;98303.56;;;15.50;64.96
68137;BME280;54939;50.826;9.030;2022-10-16T00:30:30;98295.72;;;15.49;64.74
68137;BME280;54939;50.826;9.030;2022-10-16T00:31:04;98301.28;;;15.47;64.56
68137;BME280;54939;50.826;9.030;2022-10-16T00:31:35;98296.72;;;15.48;65.01
68137;BME280;54939;50.826;9.030;2022-10-16T00:32:05;98299.44;;;15.48;64.88
68137;BME280;54939;50.826;9.030;2022-10-16T00:32:35;98300.44;;;15.47;64.76
68137;BME280;54939;50.826;9.030;2022-10-16T00:33:06;98307.28;;;15.49;64.95
68137;BME280;54939;50.826;9.030;2022-10-16T00:33:36;98300.03;;;15.50;64.89
68137;BME280;54939;50.826;9.030;2022-10-16T00:34:07;98303.78;;;15.49;64.68
68137;BME280;54939;50.826;9.030;2022-10-16T00:34:37;98299.03;;;15.51;64.74
68137;BME280;54939;50.826;9.030;2022-10-16T00:35:07;98305.41;;;15.50;64.70
68137;BME280;54939;50.826;9.030;2022-10-16T00:35:37;98301.72;;;15.51;64.68
68137;BME280;54939;50.826;9.030;2022-10-16T00:36:09;98303.56;;;15.50;64.95
68137;BME280;54939;50.826;9.030;2022-10-16T00:36:41;98300.03;;;15.50;64.81
68137;BME280;54939;50.826;9.030;2022-10-16T00:37:11;98306.47;;;15.49;64.93
68137;BME280;54939;50.826;9.030;2022-10-16T00:37:41;98304.81;;;15.48;64.91
68137;BME280;54939;50.826;9.030;2022-10-16T00:38:11;98297.75;;;15.47;64.95
68137;BME280;54939;50.826;9.030;2022-10-16T00:38:41;98297.75;;;15.47;64.90
68137;BME280;54939;50.826;9.030;2022-10-16T00:39:12;98301.28;;;15.47;65.02
68137;BME280;54939;50.826;9.030;2022-10-16T00:39:42;98294.25;;;15.46;65.05
68137;BME280;54939;50.826;9.030;2022-10-16T00:40:12;98294.25;;;15.46;65.21
68137;BME280;54939;50.826;9.030;2022-10-16T00:40:42;98303.31;;;15.45;65.02
68137;BME280;54939;50.826;9.030;2022-10-16T00:41:16;98302.31;;;15.46;64.99
68137;BME280;54939;50.826;9.030;2022-10-16T00:41:46;98299.63;;;15.46;65.20
68137;BME280;54939;50.826;9.030;2022-10-16T00:42:17;98296.09;;;15.46;64.93
68137;BME280;54939;50.826;9.030;2022-10-16T00:42:48;98298.78;;;15.46;65.02
68137;BME280;54939;50.826;9.030;2022-10-16T00:44:57;98302.50;;;15.45;65.17
68137;BME280;54939;50.826;9.030;2022-10-16T00:45:27;98301.47;;;15.46;65.05
68137;BME280;54939;50.826;9.030;2022-10-16T00:45:58;98305.63;;;15.48;64.89
68137;BME280;54939;50.826;9.030;2022-10-16T00:46:58;98301.47;;;15.46;64.96
68137;BME280;54939;50.826;9.030;2022-10-16T00:47:41;98297.56;;;15.48;64.80
68137;BME280;54939;50.826;9.030;2022-10-16T00:48:12;98291.34;;;15.48;64.71
68137;BME280;54939;50.826;9.030;2022-10-16T00:49:32;98284.53;;;15.52;64.88
68137;BME280;54939;50.826;9.030;2022-10-16T00:50:09;98287.25;;;15.52;64.75
68137;BME280;54939;50.826;9.030;2022-10-16T00:50:42;98280.19;;;15.51;64.87
68137;BME280;54939;50.826;9.030;2022-10-16T00:51:13;98286.41;;;15.51;64.56
68137;BME280;54939;50.826;9.030;2022-10-16T00:51:48;98288.94;;;15.53;64.75
68137;BME280;54939;50.826;9.030;2022-10-16T00:52:19;98287.66;;;15.49;64.51
68137;BME280;54939;50.826;9.030;2022-10-16T00:52:50;98304.59;;;15.49;64.44
68137;BME280;54939;50.826;9.030;2022-10-16T00:53:20;98302.13;;;15.48;64.67
68137;BME280;54939;50.826;9.030;2022-10-16T00:53:51;98307.28;;;15.49;64.72
68137;BME280;54939;50.826;9.030;2022-10-16T00:54:23;98316.41;;;15.48;64.70
68137;BME280;54939;50.826;9.030;2022-10-16T00:54:54;98310.19;;;15.48;64.72
68137;BME280;54939;50.826;9.030;2022-10-16T00:55:26;98315.56;;;15.48;64.53
68137;BME280;54939;50.826;9.030;2022-10-16T00:55:57;98308.34;;;15.48;64.72
68137;BME280;54939;50.826;9.030;2022-10-16T00:56:27;98306.06;;;15.52;64.33
68137;BME280;54939;50.826;9.030;2022-10-16T00:57:00;98307.09;;;15.51;64.32
68137;BME280;54939;50.826;9.030;2022-10-16T00:57:31;98301.72;;;15.51;64.33
68137;BME280;54939;50.826;9.030;2022-10-16T00:58:01;98299.22;;;15.49;64.50
68137;BME280;54939;50.826;9.030;2022-10-16T00:58:31;98294.88;;;15.48;64.67
68137;BME280;54939;50.826;9.030;2022-10-16T00:59:03;98292.19;;;15.48;64.44
68137;BME280;54939;50.826;9.030;2022-10-16T00:59:38;98300.44;;;15.47;64.89
68137;BME280;54939;50.826;9.030;2022-10-16T01:00:09;98299.50;;;15.54;64.37
68137;BME280;54939;50.826;9.030;2022-10-16T01:00:40;98292.63;;;15.52;64.44
68137;BME280;54939;50.826;9.030;2022-10-16T01:01:10;98298.50;;;15.55;64.35
68137;BME280;54939;50.826;9.030;2022-10-16T01:01:40;98296.16;;;15.52;64.24
68137;BME280;54939;50.826;9.030;2022-10-16T01:02:12;98297.00;;;15.53;64.29
68137;BME280;54939;50.826;9.030;2022-10-16T01:02:43;98302.00;;;15.56;64.30
68137;BME280;54939;50.826;9.030;2022-10-16T01:03:31;98304.88;;;15.54;64.33
68137;BME280;54939;50.826;9.030;2022-10-16T01:04:02;98309.59;;;15.52;64.37
68137;BME280;54939;50.826;9.030;2022-10-16T01:04:34;98304.22;;;15.52;64.47
68137;BME280;54939;50.826;9.030;2022-10-16T01:05:05;98306.91;;;15.52;64.25
68137;BME280;54939;50.826;9.030;2022-10-16T01:05:39;98305.22;;;15.51;64.44
68137;BME280;54939;50.826;9.030;2022-10-16T01:07:16;98307.91;;;15.51;64.17
68137;BME280;54939;50.826;9.030;2022-10-16T01:07:59;98311.63;;;15.50;64.29
68137;BME280;54939;50.826;9.030;2022-10-16T01:09:07;98309.16;;;15.49;64.28
68137;BME280;54939;50.826;9.030;2022-10-16T01:10:40;98314.72;;;15.47;64.63
68137;BME280;54939;50.826;9.030;2022-10-16T01:11:17;98317.22;;;15.49;64.04
68137;BME280;54939;50.826;9.030;2022-10-16T01:11:53;98324.47;;;15.48;64.04
68137;BME280;54939;50.826;9.030;2022-10-16T01:12:34;98325.91;;;15.51;64.22
68137;BME280;54939;50.826;9.030;2022-10-16T01:13:10;98326.09;;;15.49;64.25
68137;BME280;54939;50.826;9.030;2022-10-16T01:13:42;98324.25;;;15.50;64.33
68137;BME280;54939;50.826;9.030;2022-10-16T01:14:19;98316.81;;;15.52;64.21
68137;BME280;54939;50.826;9.030;2022-10-16T01:15:03;98314.13;;;15.52;64.08
68137;BME280;54939;50.826;9.030;2022-10-16T01:15:48;98320.72;;;15.49;64.25
68137;BME280;54939;50.826;9.030;2022-10-16T01:16:24;98321.56;;;15.50;64.04
68137;BME280;54939;50.826;9.030;2022-10-16T01:17:00;98322.41;;;15.50;64.05
68137;BME280;54939;50.826;9.030;2022-10-16T01:17:35;98318.88;;;15.50;64.12
68137;BME280;54939;50.826;9.030;2022-10-16T01:18:16;98319.94;;;15.49;64.19
68137;BME280;54939;50.826;9.030;2022-10-16T01:18:55;98324.47;;;15.48;63.88
68137;BME280;54939;50.826;9.030;2022-10-16T01:19:40;98323.63;;;15.48;64.05
68137;BME280;54939;50.826;9.030;2022-10-16T01:20:54;98331.06;;;15.46;64.11
68137;BME280;54939;50.826;9.030;2022-10-16T01:21:57;98332.72;;;15.47;64.42
68137;BME280;54939;50.826;9.030;2022-10-16T01:22:33;98322.16;;;15.45;64.14
68137;BME280;54939;50.826;9.030;2022-10-16T01:24:01;98321.13;;;15.46;64.18
68137;BME280;54939;50.826;9.030;2022-10-16T01:24:37;98325.50;;;15.47;63.88
68137;BME280;54939;50.826;9.030;2022-10-16T01:25:09;98325.31;;;15.49;63.96
68137;BME280;54939;50.826;9.030;2022-10-16T01:26:35;98335.22;;;15.48;63.89
68137;BME280;54939;50.826;9.030;2022-10-16T01:27:25;98338.53;;;15.50;64.20
68137;BME280;54939;50.826;9.030;2022-10-16T01:27:56;98338.34;;;15.52;63.83
68137;BME280;54939;50.826;9.030;2022-10-16T01:28:47;98341.22;;;15.50;64.11
68137;BME280;54939;50.826;9.030;2022-10-16T01:29:25;98341.88;;;15.52;63.81
68137;BME280;54939;50.826;9.030;2022-10-16T01:29:59;98337.69;;;15.50;64.12
68137;BME280;54939;50.826;9.030;2022-10-16T01:30:31;98338.75;;;15.49;63.96
68137;BME280;54939;50.826;9.030;2022-10-16T01:31:02;98339.78;;;15.48;63.84
68137;BME280;54939;50.826;9.030;2022-10-16T01:31:33;98338.94;;;15.47;64.24
68137;BME280;54939;50.826;9.030;2022-10-16T01:32:10;98337.09;;;15.48;64.11
68137;BME280;54939;50.826;9.030;2022-10-16T01:32:52;98340.59;;;15.48;63.94
68137;BME280;54939;50.826;9.030;2022-10-16T01:33:28;98348.47;;;15.50;63.90
68137;BME280;54939;50.826;9.030;2022-10-16T01:34:04;98343.31;;;15.48;63.70
68137;BME280;54939;50.826;9.030;2022-10-16T01:34:42;98335.22;;;15.48;63.90
68137;BME280;54939;50.826;9.030;2022-10-16T01:35:19;98351.38;;;15.48;64.17
68137;BME280;54939;50.826;9.030;2022-10-16T01:35:55;98346.59;;;15.50;64.04
68137;BME280;54939;50.826;9.030;2022-10-16T01:36:35;98347.63;;;15.49;64.02
68137;BME280;54939;50.826;9.030;2022-10-16T01:37:09;98344.56;;;15.52;63.75
68137;BME280;54939;50.826;9.030;2022-10-16T01:37:44;98346.41;;;15.52;63.78
68137;BME280;54939;50.826;9.030;2022-10-16T01:38:21;98341.31;;;15.57;63.83
68137;BME280;54939;50.826;9.030;2022-10-16T01:38:54;98341.78;;;15.60;63.55
68137;BME280;54939;50.826;9.030;2022-10-16T01:39:29;98337.00;;;15.56;63.65
68137;BME280;54939;50.826;9.030;2022-10-16T01:40:02;98339.03;;;15.54;64.06
68137;BME280;54939;50.826;9.030;2022-10-16T01:40:34;98336.50;;;15.52;63.73
68137;BME280;54939;50.826;9.030;2022-10-16T01:41:10;98336.50;;;15.52;63.68
68137;BME280;54939;50.826;9.030;2022-10-16T01:41:43;98332.63;;;15.55;63.81
68137;BME280;54939;50.826;9.030;2022-10-16T01:42:16;98339.19;;;15.52;63.80
68137;BME280;54939;50.826;9.030;2022-10-16T01:42:51;98340.06;;;15.53;63.66
68137;BME280;54939;50.826;9.030;2022-10-16T01:43:25;98342.91;;;15.51;63.55
68137;BME280;54939;50.826;9.030;2022-10-16T01:44:03;98341.13;;;15.58;63.51
68137;BME280;54939;50.826;9.030;2022-10-16T01:44:34;98346.69;;;15.57;63.44
68137;BME280;54939;50.826;9.030;2022-10-16T01:45:06;98342.75;;;15.53;63.73
68137;BME280;54939;50.826;9.030;2022-10-16T01:45:37;98356.34;;;15.51;63.60
68137;BME280;54939;50.826;9.030;2022-10-16T01:46:08;98358.38;;;15.49;63.88
68137;BME280;54939;50.826;9.030;2022-10-16T01:46:39;98360.66;;;15.46;63.68
68137;BME280;54939;50.826;9.030;2022-10-16T01:47:10;98368.53;;;15.47;63.85
68137;BME280;54939;50.826;9.030;2022-10-16T01:47:42;98360.47;;;15.47;63.92
68137;BME280;54939;50.826;9.030;2022-10-16T01:48:14;98362.50;;;15.45;64.07
68137;BME280;54939;50.826;9.030;2022-10-16T01:48:47;98359.81;;;15.45;64.13
68137;BME280;54939;50.826;9.030;2022-10-16T01:49:18;98360.00;;;15.44;64.08
68137;BME280;54939;50.826;9.030;2022-10-16T01:49:49;98361.66;;;15.45;63.85
68137;BME280;54939;50.826;9.030;2022-10-16T01:50:20;98357.97;;;15.46;63.85
68137;BME280;54939;50.826;9.030;2022-10-16T01:50:59;98354.25;;;15.47;64.15
68137;BME280;54939;50.826;9.030;2022-10-16T01:51:31;98356.09;;;15.46;63.89
68137;BME280;54939;50.826;9.030;2022-10-16T01:52:04;98346.59;;;15.50;64.05
68137;BME280;54939;50.826;9.030;2022-10-16T01:52:35;98344.94;;;15.49;63.65
68137;BME280;54939;50.826;9.030;2022-10-16T01:53:07;98347.25;;;15.52;63.86
68137;BME280;54939;50.826;9.030;2022-10-16T01:53:39;98343.56;;;15.53;63.64
68137;BME280;54939;50.826;9.030;2022-10-16T01:54:10;98346.41;;;15.52;63.64
68137;BME280;54939;50.826;9.030;2022-10-16T01:54:43;98336.69;;;15.51;63.75
68137;BME280;54939;50.826;9.030;2022-10-16T01:55:17;98345.16;;;15.48;63.88
68137;BME280;54939;50.826;9.030;2022-10-16T01:55:49;98347.84;;;15.48;63.86
68137;BME280;54939;50.826;9.030;2022-10-16T01:56:20;98341.81;;;15.46;63.92
68137;BME280;54939;50.826;9.030;2022-10-16T01:56:52;98349.25;;;15.44;64.03
68137;BME280;54939;50.826;9.030;2022-10-16T01:57:24;98351.75;;;15.45;63.98
68137;BME280;54939;50.826;9.030;2022-10-16T01:57:55;98343.31;;;15.48;64.06
68137;BME280;54939;50.826;9.030;2022-10-16T01:58:26;98342.47;;;15.48;63.88
68137;BME280;54939;50.826;9.030;2022-10-16T01:58:59;98341.63;;;15.47;63.94
68137;BME280;54939;50.826;9.030;2022-10-16T01:59:31;98336.25;;;15.47;63.81
68137;BME280;54939;50.826;9.030;2022-10-16T02:00:09;98342.25;;;15.49;63.75
68137;BME280;54939;50.826;9.030;2022-10-16T02:00:41;98332.72;;;15.47;63.76
68137;BME280;54939;50.826;9.030;2022-10-16T02:01:12;98333.38;;;15.49;63.79
68137;BME280;54939;50.826;9.030;2022-10-16T02:01:45;98329.28;;;15.53;63.69
68137;BME280;54939;50.826;9.030;2022-10-16T02:02:17;98337.69;;;15.50;63.66
68137;BME280;54939;50.826;9.030;2022-10-16T02:02:49;98334.41;;;15.48;63.75
68137;BME280;54939;50.826;9.030;2022-10-16T02:03:20;98338.09;;;15.47;63.54
68137;BME280;54939;50.826;9.030;2022-10-16T02:03:51;98342.47;;;15.48;63.80
68137;BME280;54939;50.826;9.030;2022-10-16T02:05:08;98339.78;;;15.48;63.70
68137;BME280;54939;50.826;9.030;2022-10-16T02:05:41;98339.38;;;15.51;63.71
68137;BME280;54939;50.826;9.030;2022-10-16T02:06:14;98338.53;;;15.50;63.38
68137;BME280;54939;50.826;9.030;2022-10-16T02:06:45;98333.38;;;15.49;63.79
68137;BME280;54939;50.826;9.030;2022-10-16T02:07:15;98335.22;;;15.48;63.71
68137;BME280;54939;50.826;9.030;2022-10-16T02:07:47;98332.53;;;15.48;63.80
68137;BME280;54939;50.826;9.030;2022-10-16T02:08:17;98331.97;;;15.53;63.72
68137;BME280;54939;50.826;9.030;2022-10-16T02:08:47;98333.16;;;15.50;63.54
68137;BME280;54939;50.826;9.030;2022-10-16T02:09:18;98335.22;;;15.48;63.77
68137;BME280;54939;50.826;9.030;2022-10-16T02:09:48;98329.84;;;15.48;63.69
68137;BME280;54939;50.826;9.030;2022-10-16T02:10:18;98326.31;;;15.48;63.79
68137;BME280;54939;50.826;9.030;2022-10-16T02:10:48;98333.56;;;15.47;63.58
68137;BME280;54939;50.826;9.030;2022-10-16T02:11:18;98337.09;;;15.48;63.70
68137;BME280;54939;50.826;9.030;2022-10-16T02:11:48;98334.59;;;15.46;63.66
68137;BME280;54939;50.826;9.030;2022-10-16T02:12:27;98331.06;;;15.46;63.72
68137;BME280;54939;50.826;9.030;2022-10-16T02:13:03;98332.53;;;15.48;63.70
68137;BME280;54939;50.826;9.030;2022-10-16T02:13:42;98343.50;;;15.47;63.73
68137;BME280;54939;50.826;9.030;2022-10-16T02:14:15;98332.72;;;15.47;63.75
68137;BME280;54939;50.826;9.030;2022-10-16T02:14:45;98342.66;;;15.46;63.80
68137;BME280;54939;50.826;9.030;2022-10-16T02:15:15;98351.56;;;15.47;63.57
68137;BME280;54939;50.826;9.030;2022-10-16T02:15:46;98356.75;;;15.48;63.63
68137;BME280;54939;50.826;9.030;2022-10-16T02:16:16;98357.97;;;15.46;63.99
68137;BME280;54939;50.826;9.030;2022-10-16T02:16:46;98356.09;;;15.46;63.65
68137;BME280;54939;50.826;9.030;2022-10-16T02:17:17;98352.22;;;15.49;63.65
68137;BME280;54939;50.826;9.030;2022-10-16T02:17:47;98347.00;;;15.47;63.89
68137;BME280;54939;50.826;9.030;2022-10-16T02:18:17;98353.22;;;15.48;63.63
68137;BME280;54939;50.826;9.030;2022-10-16T02:18:48;98354.06;;;15.48;63.52
68137;BME280;54939;50.826;9.030;2022-10-16T02:19:18;98355.69;;;15.49;63.65
68137;BME280;54939;50.826;9.030;2022-10-16T02:19:50;98362.56;;;15.52;63.48
68137;BME280;54939;50.826;9.030;2022-10-16T02:20:25;98359.88;;;15.52;63.43
68137;BME280;54939;50.826;9.030;2022-10-16T02:22:32;98350.97;;;15.51;63.44
68137;BME280;54939;50.826;9.030;2022-10-16T02:23:01;98347.63;;;15.49;63.44
68137;BME280;54939;50.826;9.030;2022-10-16T02:23:48;98353.84;;;15.50;63.52
68137;BME280;54939;50.826;9.030;2022-10-16T02:25:27;98352.81;;;15.51;63.47
68137;BME280;54939;50.826;9.030;2022-10-16T02:25:58;98347.44;;;15.51;63.46
68137;BME280;54939;50.826;9.030;2022-10-16T02:26:30;98356.53;;;15.50;63.66
68137;BME280;54939;50.826;9.030;2022-10-16T02:27:06;98343.31;;;15.48;63.65
68137;BME280;54939;50.826;9.030;2022-10-16T02:28:12;98356.53;;;15.50;63.54
68137;BME280;54939;50.826;9.030;2022-10-16T02:28:48;98349.50;;;15.49;63.33
68137;BME280;54939;50.826;9.030;2022-10-16T02:29:22;98345.34;;;15.46;63.70
68137;BME280;54939;50.826;9.030;2022-10-16T02:29:55;98344.94;;;15.49;63.61
68137;BME280;54939;50.826;9.030;2022-10-16T02:30:36;98342.47;;;15.48;63.73
68137;BME280;54939;50.826;9.030;2022-10-16T02:31:08;98343.31;;;15.48;63.43
68137;BME280;54939;50.826;9.030;2022-10-16T02:31:41;98338.75;;;15.49;63.36
68137;BME280;54939;50.826;9.030;2022-10-16T02:32:14;98335.22;;;15.48;63.48
68137;BME280;54939;50.826;9.030;2022-10-16T02:32:45;98332.53;;;15.48;63.46
68137;BME280;54939;50.826;9.030;2022-10-16T02:33:17;98334.81;;;15.51;63.47
68137;BME280;54939;50.826;9.030;2022-10-16T02:33:49;98330.28;;;15.52;63.33
68137;BME280;54939;50.826;9.030;2022-10-16T02:34:20;98333.25;;;15.57;63.19
68137;BME280;54939;50.826;9.030;2022-10-16T02:34:52;98326.59;;;15.53;63.31
68137;BME280;54939;50.826;9.030;2022-10-16T02:35:22;98330.28;;;15.52;63.34
68137;BME280;54939;50.826;9.030;2022-10-16T02:35:53;98331.59;;;15.56;63.23
68137;BME280;54939;50.826;9.030;2022-10-16T02:36:24;98332.97;;;15.52;63.19
68137;BME280;54939;50.826;9.030;2022-10-16T02:36:55;98332.13;;;15.51;63.34
68137;BME280;54939;50.826;9.030;2022-10-16T02:37:27;98336.50;;;15.52;63.40
68137;BME280;54939;50.826;9.030;2022-10-16T02:37:57;98341.03;;;15.52;63.35
68137;BME280;54939;50.826;9.030;2022-10-16T02:38:28;98345.78;;;15.50;63.37
68137;BME280;54939;50.826;9.030;2022-10-16T02:39:00;98344.31;;;15.47;63.30
68137;BME280;54939;50.826;9.030;2022-10-16T02:39:31;98351.38;;;15.48;63.32
68137;BME280;54939;50.826;9.030;2022-10-16T02:40:01;98356.53;;;15.50;63.36
68137;BME280;54939;50.826;9.030;2022-10-16T02:40:32;98363.59;;;15.51;63.39
68137;BME280;54939;50.826;9.030;2022-10-16T02:41:03;98370.81;;;15.50;63.40
68137;BME280;54939;50.826;9.030;2022-10-16T02:41:34;98369.81;;;15.51;63.42
68137;BME280;54939;50.826;9.030;2022-10-16T02:42:04;98376.00;;;15.52;63.36
68137;BME280;54939;50.826;9.030;2022-10-16T02:42:35;98371.66;;;15.51;63.26
68137;BME280;54939;50.826;9.030;2022-10-16T02:43:06;98375.59;;;15.48;63.29
68137;BME280;54939;50.826;9.030;2022-10-16T02:43:36;98367.50;;;15.48;63.59
68137;BME280;54939;50.826;9.030;2022-10-16T02:44:06;98371.03;;;15.49;63.35
68137;BME280;54939;50.826;9.030;2022-10-16T02:44:36;98368.34;;;15.49;63.22
68137;BME280;54939;50.826;9.030;2022-10-16T02:45:07;98365.66;;;15.49;63.28
68137;BME280;54939;50.826;9.030;2022-10-16T02:45:38;98366.69;;;15.48;63.37
68137;BME280;54939;50.826;9.030;2022-10-16T02:46:08;98365.66;;;15.49;63.42
68137;BME280;54939;50.826;9.030;2022-10-16T02:46:38;98367.50;;;15.48;63.55
68137;BME280;54939;50.826;9.030;2022-10-16T02:47:08;98360.06;;;15.50;63.48
68137;BME280;54939;50.826;9.030;2022-10-16T02:47:38;98359.22;;;15.50;63.50
68137;BME280;54939;50.826;9.030;2022-10-16T02:48:09;98360.91;;;15.51;63.18
68137;BME280;54939;50.826;9.030;2022-10-16T02:48:39;98361.91;;;15.50;63.23
68137;BME280;54939;50.826;9.030;2022-10-16T02:49:09;98356.53;;;15.50;63.32
68137;BME280;54939;50.826;9.030;2022-10-16T02:49:39;98353.66;;;15.51;63.38
68137;BME280;54939;50.826;9.030;2022-10-16T02:50:09;98360.91;;;15.51;63.22
68137;BME280;54939;50.826;9.030;2022-10-16T02:50:40;98355.09;;;15.47;63.56
68137;BME280;54939;50.826;9.030;2022-10-16T02:51:10;98352.41;;;15.47;63.26
68137;BME280;54939;50.826;9.030;2022-10-16T02:51:40;98361.06;;;15.49;63.51
68137;BME280;54939;50.826;9.030;2022-10-16T02:52:10;98353.00;;;15.49;63.38
68137;BME280;54939;50.826;9.030;2022-10-16T02:52:40;98353.22;;;15.48;63.34
68137;BME280;54939;50.826;9.030;2022-10-16T02:53:10;98355.91;;;15.48;63.24
68137;BME280;54939;50.826;9.030;2022-10-16T02:53:41;98357.59;;;15.49;63.32
68137;BME280;54939;50.826;9.030;2022-10-16T02:54:11;98354.06;;;15.48;63.51
68137;BME280;54939;50.826;9.030;2022-10-16T02:54:41;98352.59;;;15.46;63.66
68137;BME280;54939;50.826;9.030;2022-10-16T02:55:11;98359.63;;;15.47;63.37
68137;BME280;54939;50.826;9.030;2022-10-16T02:55:41;98363.16;;;15.47;63.58
68137;BME280;54939;50.826;9.030;2022-10-16T02:56:12;98356.94;;;15.47;63.44
68137;BME280;54939;50.826;9.030;2022-10-16T02:56:42;98354.25;;;15.47;63.35
68137;BME280;54939;50.826;9.030;2022-10-16T02:57:12;98358.78;;;15.46;63.43
68137;BME280;54939;50.826;9.030;2022-10-16T02:57:42;98351.56;;;15.47;63.45
68137;BME280;54939;50.826;9.030;2022-10-16T02:58:13;98359.63;;;15.47;63.39
68137;BME280;54939;50.826;9.030;2022-10-16T02:58:43;98363.34;;;15.46;63.39
68137;BME280;54939;50.826;9.030;2022-10-16T02:59:13;98362.31;;;15.47;63.55
68137;BME280;54939;50.826;9.030;2022-10-16T02:59:43;98359.63;;;15.47;63.25
68137;BME280;54939;50.826;9.030;2022-10-16T03:00:15;98366.69;;;15.48;63.34
68137;BME280;54939;50.826;9.030;2022-10-16T03:00:46;98362.13;;;15.48;63.35
68137;BME280;54939;50.826;9.030;2022-10-16T03:01:16;98367.50;;;15.48;63.28
68137;BME280;54939;50.826;9.030;2022-10-16T03:01:46;98362.75;;;15.50;63.17
68137;BME280;54939;50.826;9.030;2022-10-16T03:02:16;98364.81;;;15.48;63.10
68137;BME280;54939;50.826;9.030;2022-10-16T03:02:47;98360.78;;;15.59;62.99
68137;BME280;54939;50.826;9.030;2022-10-16T03:03:17;98366.97;;;15.53;63.10
68137;BME280;54939;50.826;9.030;2022-10-16T03:03:47;98373.31;;;15.52;63.11